KBAF

Westfield-Barnes Regional Airport

Westfield/Springfield, Massachusetts, USA
METAR KBAF 201653Z 28007KT 10SM BKN048 OVC060 16/08 A2962 RMK AO2 SLP032 T01560078
Observed Flight Rules
Oct-20 @ 16:53 UTC (an hour ago) Visual Flight Rules
Wind Visibility Clouds
280° at 7 knots 10 miles
  • Broken at 4,800' AGL
  • Overcast at 6,000' AGL
Temperatures Readings
Current 16°C / 61°F
Dewpoint 8°C / 46°F
Humidity 59%
Altimeter 29.62" Hg
Pressure 1003.2 hPa
Elevation 83
METAR KBAF 201653Z 28007KT 10SM BKN048 OVC060 16/08 A2962 RMK AO2 SLP032 T01560078
Observed Flight Rules
Oct-20 @ 16:53 UTC
(an hour ago)
VFR
Wind Visibility
280° at 7 knots 10 miles
Clouds
  • Broken at 4,800' AGL
  • Overcast at 6,000' AGL
Temperature Dewpoint
16°C / 61°F 8°C / 46°F
Humidity Altimeter Pressure
59% 29.62" Hg 1003.2 hPa